Time;durP1;ratioP1;P1;durP2;ratioP2;P2;SDS_P1;SDS_P2;PMS_P1;PMS_P2;Temp;Humidity;BMP_temperature;BMP_pressure;BME280_temperature;BME280_humidity;BME280_pressure;Samples;Min_cycle;Max_cycle;Signal;HPM_P1;HPM_P2
2022/06/04 00:00:49;;;;;;;19.02;8.20;;;12.00;99.90;;;;;;5031722;28;20098;-42
2022/06/04 00:03:17;;;;;;;17.92;8.43;;;10.20;99.90;;;;;;5034042;28;20130;-46
2022/06/04 00:05:47;;;;;;;17.42;8.55;;;11.80;99.90;;;;;;5051272;28;20227;-46
2022/06/04 00:08:13;;;;;;;18.73;7.72;;;12.40;99.90;;;;;;5051146;28;20041;-48
2022/06/04 00:16:30;;;;;;;18.77;9.35;;;11.00;99.90;;;;;;4993504;28;20056;-47
2022/06/04 00:18:57;;;;;;;19.50;10.15;;;10.10;99.90;;;;;;4993151;28;20049;-49
2022/06/04 00:21:23;;;;;;;19.80;8.48;;;11.50;99.90;;;;;;4994968;28;20143;-44
2022/06/04 00:23:49;;;;;;;21.02;10.93;;;9.90;99.90;;;;;;4993501;28;20049;-48
2022/06/04 00:26:16;;;;;;;25.73;10.68;;;10.90;99.90;;;;;;4993517;28;20041;-47
2022/06/04 00:28:42;;;;;;;24.00;11.32;;;9.80;99.90;;;;;;4992991;28;20054;-48
2022/06/04 00:31:08;;;;;;;21.15;11.75;;;10.80;99.90;;;;;;4994113;28;20053;-46
2022/06/04 00:33:34;;;;;;;17.58;10.77;;;11.10;99.90;;;;;;4992802;28;20049;-48
2022/06/04 00:36:00;;;;;;;19.75;10.48;;;10.10;99.90;;;;;;4993927;28;20073;-47
2022/06/04 00:38:29;;;;;;;18.05;12.93;;;11.10;99.90;;;;;;4994326;28;20645;-46
2022/06/04 00:41:00;;;;;;;21.52;12.23;;;11.60;99.90;;;;;;4993937;28;20253;-48
2022/06/04 00:43:28;;;;;;;20.27;11.87;;;9.90;99.90;;;;;;4993729;28;20863;-48
2022/06/04 00:46:41;;;;;;;20.50;11.85;;;11.90;99.90;;;;;;4993825;28;20521;-47
2022/06/04 00:49:10;;;;;;;22.15;12.43;;;9.80;99.90;;;;;;4974915;28;20061;-47
2022/06/04 00:51:36;;;;;;;22.38;11.80;;;10.90;99.90;;;;;;4975452;28;20120;-46
2022/06/04 00:54:03;;;;;;;21.15;11.05;;;10.00;99.90;;;;;;4974602;28;20037;-46
2022/06/04 00:56:46;;;;;;;21.40;11.30;;;9.80;99.90;;;;;;4974150;28;20391;-44
2022/06/04 00:59:39;;;;;;;25.98;11.23;;;10.10;99.90;;;;;;4974883;28;20163;-47
2022/06/04 01:02:43;;;;;;;23.90;10.95;;;9.90;99.90;;;;;;4975154;28;20088;-47
2022/06/04 01:05:17;;;;;;;21.65;10.57;;;9.80;99.90;;;;;;4936121;28;20059;-43
2022/06/04 01:07:57;;;;;;;24.73;10.38;;;9.70;99.90;;;;;;4938307;28;20070;-46
2022/06/04 01:10:53;;;;;;;17.60;9.30;;;9.60;99.90;;;;;;4937537;28;20535;-45
2022/06/04 01:13:57;;;;;;;16.67;9.13;;;9.70;99.90;;;;;;4951737;28;20695;-48
2022/06/04 01:16:38;;;;;;;22.50;9.35;;;9.80;99.90;;;;;;4919963;28;20069;-44
2022/06/04 01:19:39;;;;;;;20.90;9.90;;;9.90;99.90;;;;;;4920107;28;20113;-46
2022/06/04 01:22:18;;;;;;;16.20;9.13;;;10.50;99.90;;;;;;4935374;28;20050;-46
2022/06/04 01:25:19;;;;;;;16.00;8.27;;;9.80;99.90;;;;;;4952714;28;20125;-44
2022/06/04 01:27:53;;;;;;;17.60;8.10;;;10.00;99.90;;;;;;4970235;28;20042;-45
2022/06/04 01:30:34;;;;;;;21.65;8.52;;;9.70;99.90;;;;;;4954038;28;20526;-44
2022/06/04 01:33:14;;;;;;;16.75;8.25;;;9.80;99.90;;;;;;4955053;28;20042;-43
2022/06/04 01:35:59;;;;;;;15.77;8.32;;;10.00;99.90;;;;;;4967770;28;20877;-43
2022/06/04 01:38:36;;;;;;;23.77;9.15;;;9.80;99.90;;;;;;4969934;28;20478;-46
2022/06/04 01:41:08;;;;;;;22.02;8.65;;;9.90;99.90;;;;;;4954548;28;20597;-43
2022/06/04 01:44:06;;;;;;;20.03;8.87;;;10.50;99.90;;;;;;5006743;28;20529;-43
2022/06/04 01:46:42;;;;;;;17.65;8.15;;;9.90;99.90;;;;;;4969346;28;20050;-47
2022/06/04 01:49:36;;;;;;;15.10;8.80;;;9.80;99.90;;;;;;4952915;28;20141;-44
2022/06/04 01:52:11;;;;;;;20.02;7.80;;;9.90;99.90;;;;;;4912300;29;21106;-45
2022/06/04 01:54:50;;;;;;;18.77;8.30;;;9.90;99.90;;;;;;4907086;29;20071;-45
2022/06/04 01:57:19;;;;;;;13.80;8.02;;;9.70;99.90;;;;;;4934464;28;20159;-44
2022/06/04 01:59:52;;;;;;;16.25;7.75;;;10.10;99.90;;;;;;4967420;28;20062;-43
2022/06/04 02:02:26;;;;;;;13.50;8.15;;;9.70;99.90;;;;;;4955368;28;20059;-48
2022/06/04 02:04:57;;;;;;;16.42;8.00;;;10.80;99.90;;;;;;4955441;28;20054;-43
2022/06/04 02:07:30;;;;;;;15.55;7.47;;;9.60;99.90;;;;;;4970982;28;20128;-43
2022/06/04 02:10:27;;;;;;;17.15;7.63;;;9.50;99.90;;;;;;4969690;28;20109;-43
2022/06/04 02:12:59;;;;;;;19.60;8.38;;;9.50;99.90;;;;;;4949621;28;20202;-42
2022/06/04 02:15:35;;;;;;;16.08;7.20;;;9.70;99.90;;;;;;4938243;28;20073;-43
2022/06/04 02:18:03;;;;;;;18.73;8.05;;;11.70;99.90;;;;;;4971162;28;20054;-42
2022/06/04 02:20:30;;;;;;;17.38;7.80;;;9.60;99.90;;;;;;4939906;28;20055;-42
2022/06/04 02:22:56;;;;;;;21.15;8.43;;;9.60;99.90;;;;;;4957217;28;20089;-44
2022/06/04 02:25:22;;;;;;;19.85;7.93;;;10.40;99.90;;;;;;4977867;28;20156;-47
2022/06/04 02:27:50;;;;;;;15.65;7.78;;;9.60;99.90;;;;;;4976639;28;20052;-44
2022/06/04 02:30:15;;;;;;;19.70;8.88;;;10.80;99.90;;;;;;5055432;28;20075;-48
2022/06/04 02:33:00;;;;;;;13.30;6.78;;;10.70;99.90;;;;;;5053477;28;20482;-43
2022/06/04 02:35:34;;;;;;;17.58;7.95;;;9.70;99.90;;;;;;5038613;28;20106;-45
2022/06/04 02:38:33;;;;;;;13.02;7.60;;;11.10;99.90;;;;;;5055122;28;20056;-43
2022/06/04 02:41:23;;;;;;;13.60;7.35;;;9.60;99.90;;;;;;5053486;28;20072;-44
2022/06/04 02:44:07;;;;;;;12.05;7.90;;;9.60;99.90;;;;;;5054935;28;20448;-43
2022/06/04 02:46:40;;;;;;;13.35;7.65;;;9.50;99.90;;;;;;5052588;28;20056;-43
2022/06/04 02:49:41;;;;;;;15.57;7.57;;;9.50;99.90;;;;;;5069613;28;20135;-42
2022/06/04 02:52:11;;;;;;;14.55;8.38;;;9.50;99.90;;;;;;5034405;28;20409;-43
2022/06/04 02:54:48;;;;;;;16.42;8.32;;;9.60;99.90;;;;;;5052946;28;20048;-42
2022/06/04 02:57:17;;;;;;;20.40;9.57;;;9.50;99.90;;;;;;5069231;28;20741;-43
2022/06/04 02:59:46;;;;;;;12.98;7.50;;;9.60;99.90;;;;;;5054031;28;20093;-43
2022/06/04 03:02:15;;;;;;;19.73;8.73;;;10.10;99.90;;;;;;5053546;28;20059;-44
2022/06/04 03:04:50;;;;;;;15.73;7.85;;;9.50;99.90;;;;;;5053209;28;20052;-44
2022/06/04 03:07:19;;;;;;;16.45;8.52;;;9.50;99.90;;;;;;5052718;28;20048;-42
2022/06/04 03:09:48;;;;;;;16.60;9.25;;;10.50;99.90;;;;;;5035692;28;20060;-43
2022/06/04 03:12:14;;;;;;;17.20;8.35;;;9.40;99.90;;;;;;5052376;28;20048;-47
2022/06/04 03:14:40;;;;;;;15.35;7.82;;;9.30;99.90;;;;;;5052123;28;20040;-47
2022/06/04 03:17:08;;;;;;;16.02;9.57;;;10.30;99.90;;;;;;5036693;28;20056;-50
2022/06/04 03:19:34;;;;;;;19.52;8.57;;;9.10;99.90;;;;;;5053731;28;20121;-46
2022/06/04 03:22:00;;;;;;;17.67;8.82;;;10.60;99.90;;;;;;5054375;28;20040;-47
2022/06/04 03:24:28;;;;;;;17.27;8.48;;;9.10;99.90;;;;;;5053964;28;20043;-48
2022/06/04 03:26:54;;;;;;;14.27;8.02;;;9.50;99.90;;;;;;5052047;28;20431;-48
2022/06/04 03:29:20;;;;;;;14.88;8.10;;;9.40;99.90;;;;;;5036452;28;20106;-46
2022/06/04 03:31:46;;;;;;;14.80;8.10;;;10.10;99.90;;;;;;5070271;28;20527;-45
2022/06/04 03:34:12;;;;;;;15.25;8.65;;;9.20;99.90;;;;;;5052749;28;20379;-46
2022/06/04 03:36:39;;;;;;;17.98;9.48;;;9.20;99.90;;;;;;5050146;28;20075;-48
2022/06/04 03:39:08;;;;;;;14.07;8.40;;;9.20;99.90;;;;;;5052147;28;20797;-47
2022/06/04 03:41:35;;;;;;;17.27;7.80;;;10.10;99.90;;;;;;5052850;28;20033;-48
2022/06/04 03:44:01;;;;;;;10.60;8.40;;;9.20;99.90;;;;;;5052992;28;20083;-45
2022/06/04 03:46:29;;;;;;;18.98;9.23;;;9.20;99.90;;;;;;5069309;28;20572;-47
2022/06/04 03:48:56;;;;;;;15.15;8.75;;;9.30;99.90;;;;;;5051521;28;20056;-45
2022/06/04 03:51:23;;;;;;;15.35;7.80;;;9.20;99.90;;;;;;5055391;28;20044;-46
2022/06/04 03:53:51;;;;;;;17.05;7.65;;;10.50;99.90;;;;;;5054173;28;20049;-45
2022/06/04 03:56:17;;;;;;;14.75;9.07;;;11.30;99.90;;;;;;5053057;28;20075;-45
2022/06/04 03:58:43;;;;;;;13.88;7.40;;;9.50;99.90;;;;;;5052405;28;20049;-46
2022/06/04 04:01:23;;;;;;;17.38;8.45;;;9.20;99.90;;;;;;5054653;28;20044;-44
2022/06/04 04:03:50;;;;;;;14.65;8.05;;;10.50;99.90;;;;;;5052343;28;20091;-45
2022/06/04 04:06:30;;;;;;;13.65;8.02;;;9.60;99.90;;;;;;5032768;28;20062;-45
2022/06/04 04:08:57;;;;;;;14.30;7.97;;;9.30;99.90;;;;;;5052468;28;20221;-45
2022/06/04 04:11:25;;;;;;;13.55;7.80;;;9.10;99.90;;;;;;5035324;28;20036;-49
2022/06/04 04:13:52;;;;;;;10.60;7.13;;;9.40;99.90;;;;;;5053581;28;20556;-45
2022/06/04 04:16:20;;;;;;;12.05;7.53;;;9.50;99.90;;;;;;5035452;28;20036;-45
2022/06/04 04:18:46;;;;;;;22.00;7.97;;;9.50;99.90;;;;;;5053112;28;20049;-47
2022/06/04 04:21:15;;;;;;;10.88;7.30;;;11.50;99.90;;;;;;5052198;28;20044;-45
2022/06/04 04:23:42;;;;;;;14.07;7.13;;;10.40;99.90;;;;;;5051192;28;20071;-50
2022/06/04 04:26:10;;;;;;;12.77;7.18;;;11.20;99.90;;;;;;5050435;28;20048;-46
2022/06/04 04:28:36;;;;;;;11.25;6.75;;;10.50;99.90;;;;;;5050241;28;20442;-46
2022/06/04 04:31:09;;;;;;;11.13;6.18;;;9.80;99.90;;;;;;5047624;28;20052;-45
2022/06/04 04:33:35;;;;;;;9.95;6.32;;;10.00;99.90;;;;;;5051504;28;20032;-45
2022/06/04 04:36:01;;;;;;;10.98;5.88;;;8.00;99.90;;;;;;5051574;28;20045;-46
2022/06/04 04:38:27;;;;;;;14.80;6.70;;;10.70;99.90;;;;;;5034085;28;20048;-46
2022/06/04 04:40:52;;;;;;;15.93;6.78;;;11.50;99.90;;;;;;5052751;28;20044;-46
2022/06/04 04:43:18;;;;;;;13.68;5.97;;;11.30;99.90;;;;;;5050716;28;20501;-46
2022/06/04 04:45:47;;;;;;;21.00;7.55;;;10.20;99.90;;;;;;5052036;28;20619;-46
2022/06/04 04:48:14;;;;;;;10.70;6.57;;;11.60;99.90;;;;;;5050573;28;20047;-48
2022/06/04 04:50:46;;;;;;;8.38;5.85;;;11.70;99.90;;;;;;5034460;28;20051;-45
2022/06/04 04:53:14;;;;;;;10.35;6.20;;;11.60;99.90;;;;;;5051250;28;20044;-51
2022/06/04 04:55:44;;;;;;;10.45;5.75;;;12.60;99.90;;;;;;5051085;28;20088;-46
2022/06/04 04:58:10;;;;;;;9.93;5.53;;;10.70;99.90;;;;;;5050535;28;20040;-46
2022/06/04 05:00:38;;;;;;;10.85;6.95;;;10.80;99.90;;;;;;5051107;28;20393;-46
2022/06/04 05:03:04;;;;;;;12.35;5.90;;;11.20;99.90;;;;;;5049743;28;20675;-48
2022/06/04 05:05:30;;;;;;;12.52;6.38;;;10.90;99.90;;;;;;5034406;28;20048;-45
2022/06/04 05:07:56;;;;;;;11.65;5.63;;;10.90;99.90;;;;;;5051252;28;20045;-45
2022/06/04 05:10:24;;;;;;;11.35;6.07;;;11.00;99.90;;;;;;5051318;28;20070;-49
2022/06/04 05:12:55;;;;;;;10.88;5.57;;;11.20;99.90;;;;;;5050060;28;20036;-50
2022/06/04 05:15:21;;;;;;;13.20;5.90;;;13.20;99.90;;;;;;5050686;28;20105;-48
2022/06/04 05:17:49;;;;;;;11.68;6.82;;;11.70;99.90;;;;;;5051181;28;20055;-47
2022/06/04 05:20:15;;;;;;;10.98;6.18;;;11.40;99.90;;;;;;5050241;28;20033;-45
2022/06/04 05:22:42;;;;;;;12.20;6.18;;;11.40;99.90;;;;;;5035654;28;20052;-46
2022/06/04 05:25:08;;;;;;;11.00;5.75;;;11.50;99.90;;;;;;5051097;28;20064;-49
2022/06/04 05:27:34;;;;;;;8.95;5.13;;;11.50;99.90;;;;;;5050660;28;20113;-48
2022/06/04 05:29:59;;;;;;;9.70;5.65;;;11.80;99.90;;;;;;5043417;28;20413;-46
2022/06/04 05:32:26;;;;;;;8.23;5.50;;;11.80;99.90;;;;;;5051710;28;20064;-50
2022/06/04 05:34:51;;;;;;;12.20;5.90;;;11.80;99.90;;;;;;5050169;28;20366;-46
2022/06/04 05:37:17;;;;;;;8.00;4.78;;;14.10;99.90;;;;;;5032982;28;20052;-49
2022/06/04 05:39:44;;;;;;;10.05;5.55;;;12.10;99.90;;;;;;5033231;28;20083;-47
2022/06/04 05:42:10;;;;;;;8.57;5.40;;;12.40;99.90;;;;;;5032825;28;20051;-50
2022/06/04 05:44:36;;;;;;;9.10;5.47;;;12.20;99.90;;;;;;5049721;28;20048;-49
2022/06/04 05:47:04;;;;;;;10.63;5.60;;;12.20;99.90;;;;;;5049407;28;20095;-49
2022/06/04 05:49:31;;;;;;;11.57;5.28;;;12.20;99.90;;;;;;5051040;28;20094;-49
2022/06/04 05:51:57;;;;;;;11.85;5.35;;;13.90;99.90;;;;;;5051513;28;20117;-45
2022/06/04 05:54:23;;;;;;;9.77;5.35;;;13.90;99.90;;;;;;5050602;28;20052;-46
2022/06/04 05:56:50;;;;;;;8.15;5.20;;;14.80;99.90;;;;;;5051544;28;20033;-48
2022/06/04 05:59:18;;;;;;;8.52;5.07;;;13.40;99.90;;;;;;5083871;28;20043;-49
2022/06/04 06:01:46;;;;;;;10.88;4.95;;;14.80;99.90;;;;;;5051278;28;20508;-50
2022/06/04 06:04:14;;;;;;;10.98;5.18;;;12.80;99.90;;;;;;5028225;28;20036;-46
2022/06/04 06:06:43;;;;;;;9.90;5.40;;;12.70;99.90;;;;;;5033162;28;20156;-49
2022/06/04 06:09:12;;;;;;;8.80;4.45;;;12.90;99.90;;;;;;5033268;28;20049;-50
2022/06/04 06:11:39;;;;;;;9.75;5.03;;;13.00;99.90;;;;;;5052370;28;20408;-45
2022/06/04 06:14:07;;;;;;;12.75;4.95;;;13.00;99.90;;;;;;5032480;28;20044;-48
2022/06/04 06:16:35;;;;;;;6.60;3.90;;;13.20;99.90;;;;;;5032883;28;20052;-46
2022/06/04 06:19:01;;;;;;;9.43;4.25;;;13.90;99.90;;;;;;5048254;28;20052;-50
2022/06/04 06:21:30;;;;;;;8.07;4.63;;;15.40;99.90;;;;;;5048928;28;20498;-46
2022/06/04 06:23:58;;;;;;;7.05;4.32;;;15.10;99.90;;;;;;5049454;28;20109;-48
2022/06/04 06:26:32;;;;;;;10.27;4.60;;;13.40;99.90;;;;;;5031781;28;20040;-46
2022/06/04 06:29:04;;;;;;;9.50;4.78;;;15.30;99.90;;;;;;5047432;28;20045;-48
2022/06/04 06:31:31;;;;;;;8.43;4.03;;;13.60;99.90;;;;;;5048999;28;20394;-46
2022/06/04 06:33:57;;;;;;;11.50;4.68;;;14.10;99.90;;;;;;5049156;28;20040;-45
2022/06/04 06:36:25;;;;;;;6.05;3.97;;;14.20;99.90;;;;;;5032816;28;20040;-46
2022/06/04 06:38:51;;;;;;;7.57;4.28;;;14.10;99.90;;;;;;5049596;28;20447;-48
2022/06/04 06:41:19;;;;;;;8.55;4.40;;;16.40;99.90;;;;;;5049721;28;20068;-48
2022/06/04 06:43:55;;;;;;;8.13;4.30;;;14.40;99.90;;;;;;5032912;28;20131;-47
2022/06/04 06:46:48;;;;;;;7.13;4.28;;;14.40;99.90;;;;;;5049155;28;20044;-49
2022/06/04 06:49:23;;;;;;;9.18;4.07;;;14.40;99.90;;;;;;5087156;28;20550;-46
2022/06/04 06:51:53;;;;;;;6.15;3.75;;;16.80;99.90;;;;;;5054435;28;20190;-45
2022/06/04 06:54:21;;;;;;;7.97;4.53;;;15.00;99.90;;;;;;5053519;28;20048;-46
2022/06/04 06:56:48;;;;;;;6.32;3.72;;;15.40;99.90;;;;;;5051688;28;20032;-46
2022/06/04 06:59:15;;;;;;;7.82;3.92;;;15.50;99.90;;;;;;5035555;28;20043;-48
2022/06/04 07:01:42;;;;;;;8.70;3.78;;;17.50;99.90;;;;;;5053431;28;20443;-46
2022/06/04 07:04:09;;;;;;;7.28;4.13;;;16.00;99.90;;;;;;5053157;28;20151;-49
2022/06/04 07:06:44;;;;;;;6.85;3.85;;;16.30;99.90;;;;;;5037036;28;20083;-50
2022/06/04 07:09:15;;;;;;;6.18;3.40;;;17.30;99.90;;;;;;5052615;28;20493;-46
2022/06/04 07:11:43;;;;;;;5.95;3.70;;;18.00;99.90;;;;;;5052346;28;20390;-49
2022/06/04 07:14:10;;;;;;;5.40;3.22;;;18.90;99.90;;;;;;5034857;28;20478;-47
2022/06/04 07:16:36;;;;;;;7.90;3.47;;;19.00;99.90;;;;;;5050227;28;20432;-51
2022/06/04 07:19:04;;;;;;;9.55;3.83;;;18.90;99.90;;;;;;5035351;28;20059;-47
2022/06/04 07:21:30;;;;;;;5.30;3.28;;;19.30;99.90;;;;;;5052159;28;20043;-48
2022/06/04 07:23:56;;;;;;;5.63;3.22;;;20.00;99.90;;;;;;5050503;28;20029;-52
2022/06/04 07:26:22;;;;;;;4.93;2.97;;;19.80;99.90;;;;;;5050602;28;20079;-50
2022/06/04 07:28:48;;;;;;;6.90;3.45;;;20.40;99.90;;;;;;5052225;28;20063;-50
2022/06/04 07:31:14;;;;;;;5.70;3.00;;;20.40;99.90;;;;;;5035471;28;20041;-49
2022/06/04 07:33:45;;;;;;;5.25;3.45;;;21.00;99.90;;;;;;5052126;28;20045;-48
2022/06/04 07:36:15;;;;;;;8.60;3.30;;;21.00;99.90;;;;;;5050523;28;20037;-53
2022/06/04 07:38:40;;;;;;;6.82;2.90;;;21.20;99.90;;;;;;5051170;28;20044;-49
2022/06/04 07:41:06;;;;;;;6.60;3.15;;;23.00;99.90;;;;;;5050679;28;20129;-48
2022/06/04 07:43:33;;;;;;;5.95;3.22;;;21.10;99.90;;;;;;5051818;28;20124;-51
2022/06/04 07:45:59;;;;;;;5.65;2.85;;;21.40;99.90;;;;;;5051323;28;20048;-51
2022/06/04 07:48:25;;;;;;;7.43;3.10;;;21.40;99.90;;;;;;5050534;28;20055;-51
2022/06/04 07:50:53;;;;;;;8.18;2.88;;;21.10;99.90;;;;;;5035481;28;20044;-51
2022/06/04 07:53:18;;;;;;;7.25;3.40;;;21.20;99.90;;;;;;5052479;28;20052;-54
2022/06/04 07:55:44;;;;;;;7.20;3.25;;;21.40;99.90;;;;;;5053379;28;20417;-51
2022/06/04 07:58:10;;;;;;;7.25;3.30;;;21.20;99.90;;;;;;5053535;28;20043;-48
2022/06/04 08:00:38;;;;;;;9.32;3.10;;;21.20;99.90;;;;;;5052270;28;20047;-53
2022/06/04 08:03:07;;;;;;;7.35;3.30;;;23.60;99.90;;;;;;5050919;28;20133;-50
2022/06/04 08:05:33;;;;;;;5.90;3.10;;;21.60;99.90;;;;;;5051818;28;20405;-52
2022/06/04 08:07:59;;;;;;;8.82;3.70;;;22.40;99.90;;;;;;5052940;28;20063;-50
2022/06/04 08:10:25;;;;;;;4.80;2.80;;;24.00;99.90;;;;;;5052488;28;20447;-48
2022/06/04 08:12:55;;;;;;;45.63;6.28;;;24.30;99.90;;;;;;5053028;28;20040;-49
2022/06/04 08:15:22;;;;;;;7.85;3.58;;;22.00;99.90;;;;;;5052122;28;20103;-48
2022/06/04 08:17:48;;;;;;;6.40;3.45;;;21.90;99.90;;;;;;5051516;28;20079;-48
2022/06/04 08:20:16;;;;;;;6.35;2.70;;;22.50;99.90;;;;;;5052602;28;20144;-53
2022/06/04 08:22:42;;;;;;;18.85;5.65;;;22.20;99.90;;;;;;5052728;28;20059;-52
2022/06/04 08:25:07;;;;;;;9.20;8.05;;;22.10;99.90;;;;;;5051652;28;20041;-53
2022/06/04 08:27:33;;;;;;;13.95;9.63;;;22.20;99.90;;;;;;5052923;28;20036;-51
2022/06/04 08:29:59;;;;;;;55.60;20.50;;;22.60;99.90;;;;;;5051251;28;20036;-50
2022/06/04 08:32:24;;;;;;;1161.13;557.97;;;22.20;99.90;;;;;;5051602;28;20131;-49
2022/06/04 08:34:52;;;;;;;42.80;32.50;;;21.80;99.90;;;;;;5052616;28;20126;-52
2022/06/04 08:37:18;;;;;;;362.80;208.32;;;21.30;99.90;;;;;;5050816;28;20284;-48
2022/06/04 08:39:44;;;;;;;1692.82;722.75;;;21.00;99.90;;;;;;5030672;28;20051;-51
2022/06/04 08:42:39;;;;;;;826.92;508.13;;;20.60;99.90;;;;;;5051293;28;21155;-48
2022/06/04 08:45:10;;;;;;;321.67;244.30;;;21.60;99.90;;;;;;5033958;28;20576;-48
2022/06/04 08:47:49;;;;;;;697.75;311.27;;;19.40;99.90;;;;;;5052721;28;20134;-49
2022/06/04 08:50:18;;;;;;;7.75;3.70;;;18.80;99.90;;;;;;5050553;28;20037;-48
2022/06/04 08:52:54;;;;;;;13.95;4.65;;;19.00;99.90;;;;;;5051853;28;20607;-49
2022/06/04 08:58:38;;;;;;;8.05;4.00;;;18.90;99.90;;;;;;5050329;28;20413;-52
2022/06/04 09:01:12;;;;;;;58.03;7.53;;;18.60;99.90;;;;;;5049744;28;20045;-50
2022/06/04 09:04:21;;;;;;;8.07;4.00;;;18.50;99.90;;;;;;5085407;28;20052;-48
2022/06/04 09:07:17;;;;;;;7.13;3.30;;;18.50;99.90;;;;;;4993897;28;20659;-53
2022/06/04 09:09:52;;;;;;;8.40;4.32;;;18.20;99.90;;;;;;4991855;28;20053;-49
2022/06/04 09:12:45;;;;;;;10.25;4.13;;;18.20;99.90;;;;;;4993960;28;20301;-48
2022/06/04 09:15:39;;;;;;;7.22;3.67;;;18.30;99.90;;;;;;4992313;28;20042;-46
2022/06/04 09:18:15;;;;;;;10.57;4.07;;;18.20;99.90;;;;;;4992584;28;20041;-46
2022/06/04 09:20:44;;;;;;;7.38;3.50;;;17.90;99.90;;;;;;4994105;28;20045;-46
2022/06/04 09:23:24;;;;;;;7.60;3.22;;;17.80;99.90;;;;;;5009237;28;20049;-50
2022/06/04 09:26:11;;;;;;;10.57;3.50;;;18.00;99.90;;;;;;5008869;28;20041;-46
2022/06/04 09:29:03;;;;;;;7.43;3.58;;;17.70;99.90;;;;;;5027423;28;20041;-49
2022/06/04 09:31:56;;;;;;;6.57;3.40;;;17.60;99.90;;;;;;4993625;28;20190;-46
2022/06/04 09:34:35;;;;;;;7.63;3.38;;;17.40;99.90;;;;;;5025869;28;20135;-49
2022/06/04 09:37:02;;;;;;;7.20;3.00;;;17.50;99.90;;;;;;4992801;28;20061;-47
2022/06/04 09:39:31;;;;;;;9.05;3.58;;;17.70;99.90;;;;;;5010683;28;20148;-49
2022/06/04 09:42:00;;;;;;;6.60;3.00;;;17.70;99.90;;;;;;4991004;28;20060;-47
2022/06/04 09:44:28;;;;;;;7.38;2.80;;;17.80;99.90;;;;;;5049263;28;21405;-48
2022/06/04 09:46:59;;;;;;;5.70;3.13;;;18.10;99.90;;;;;;5049537;28;20048;-46
2022/06/04 09:49:33;;;;;;;12.13;3.50;;;18.90;99.90;;;;;;5050373;28;20052;-47
2022/06/04 09:52:10;;;;;;;7.68;3.67;;;19.10;99.90;;;;;;5049741;28;20065;-48
2022/06/04 09:54:37;;;;;;;6.80;3.55;;;18.10;99.90;;;;;;5083781;28;20052;-48
2022/06/04 09:57:05;;;;;;;7.90;3.35;;;18.50;99.90;;;;;;5033112;28;20158;-46
2022/06/04 09:59:34;;;;;;;7.63;3.92;;;18.40;99.90;;;;;;5050151;28;20067;-46
2022/06/04 10:02:09;;;;;;;7.00;3.65;;;20.20;99.90;;;;;;5047528;28;20090;-47
2022/06/04 10:04:41;;;;;;;8.30;3.47;;;20.30;99.90;;;;;;5049938;28;20057;-48
2022/06/04 10:07:10;;;;;;;6.90;3.05;;;18.50;99.90;;;;;;5051188;28;20049;-46
2022/06/04 10:09:57;;;;;;;5.57;3.25;;;18.30;99.90;;;;;;5048603;28;20033;-46
2022/06/04 10:15:47;;;;;;;9.43;4.03;;;18.80;99.90;;;;;;5049503;28;20131;-46
2022/06/04 10:18:21;;;;;;;4.78;2.95;;;19.70;99.90;;;;;;5031759;28;20060;-46
2022/06/04 10:21:00;;;;;;;7.13;3.47;;;18.60;99.90;;;;;;5031133;28;20066;-49
2022/06/04 10:23:28;;;;;;;9.10;3.35;;;18.70;99.90;;;;;;5034450;28;20052;-48
2022/06/04 10:26:03;;;;;;;6.78;3.58;;;18.60;99.90;;;;;;5034746;28;20071;-47
2022/06/04 10:28:50;;;;;;;7.22;3.30;;;18.70;99.90;;;;;;5034668;28;20052;-46
2022/06/04 10:31:33;;;;;;;7.15;3.70;;;18.70;99.90;;;;;;5051495;28;20051;-47
2022/06/04 10:34:24;;;;;;;5.50;3.03;;;19.00;99.90;;;;;;5034064;28;20545;-51
2022/06/04 10:37:46;;;;;;;6.05;3.35;;;18.80;99.90;;;;;;5033873;28;20618;-47
2022/06/04 10:40:30;;;;;;;6.15;3.38;;;18.90;99.90;;;;;;4954605;28;20053;-47
2022/06/04 10:43:35;;;;;;;8.05;3.42;;;19.10;99.90;;;;;;4972776;28;20141;-47
2022/06/04 10:46:17;;;;;;;5.57;2.85;;;19.20;99.90;;;;;;4972871;28;20202;-50
2022/06/04 10:49:19;;;;;;;10.32;3.20;;;19.60;99.90;;;;;;4970442;28;20058;-47
2022/06/04 10:52:05;;;;;;;5.65;2.63;;;18.70;99.90;;;;;;4957899;28;20049;-47
2022/06/04 10:54:49;;;;;;;8.35;3.25;;;18.80;99.90;;;;;;4966201;28;20443;-47
2022/06/04 10:57:35;;;;;;;4.95;2.45;;;19.00;99.90;;;;;;4936747;28;20145;-47
2022/06/04 11:00:16;;;;;;;7.40;3.10;;;19.10;99.90;;;;;;4938426;28;20057;-47
2022/06/04 11:02:50;;;;;;;5.70;3.25;;;19.10;99.90;;;;;;4938029;28;20534;-48
2022/06/04 11:05:45;;;;;;;5.53;3.13;;;19.00;99.90;;;;;;4967320;28;21245;-46
2022/06/04 11:08:38;;;;;;;6.93;3.35;;;18.80;99.90;;;;;;4918039;28;20046;-48
2022/06/04 11:11:12;;;;;;;9.40;3.08;;;18.60;99.90;;;;;;4950005;28;20046;-50
2022/06/04 11:13:57;;;;;;;7.13;3.38;;;18.80;99.90;;;;;;4951610;28;20047;-48
2022/06/04 11:16:34;;;;;;;7.45;3.50;;;18.70;99.90;;;;;;5010544;28;20914;-50
2022/06/04 11:19:18;;;;;;;6.45;3.70;;;18.80;99.90;;;;;;5033504;28;20068;-50
2022/06/04 11:22:12;;;;;;;7.20;4.05;;;18.90;99.90;;;;;;5035040;28;20523;-52
2022/06/04 11:24:47;;;;;;;9.32;3.45;;;18.50;99.90;;;;;;4973083;28;20062;-50
2022/06/04 11:27:21;;;;;;;6.13;3.97;;;18.80;99.90;;;;;;4972643;28;20197;-49
2022/06/04 11:29:50;;;;;;;5.03;3.28;;;18.80;99.90;;;;;;4940736;28;20053;-48
2022/06/04 11:32:35;;;;;;;10.65;3.60;;;18.20;99.90;;;;;;4972818;28;20069;-52
2022/06/04 11:35:51;;;;;;;7.68;3.33;;;18.50;99.90;;;;;;4970706;28;20050;-51
2022/06/04 11:38:25;;;;;;;6.82;3.55;;;18.70;99.90;;;;;;4879734;29;20052;-51
2022/06/04 11:41:03;;;;;;;8.15;3.10;;;18.80;99.90;;;;;;4896156;29;20056;-51
2022/06/04 11:43:55;;;;;;;8.77;3.95;;;18.90;99.90;;;;;;4879370;29;20391;-51
2022/06/04 11:46:54;;;;;;;8.55;3.30;;;18.80;99.90;;;;;;4875330;29;20105;-53
2022/06/04 11:49:37;;;;;;;8.77;3.55;;;18.90;99.90;;;;;;4889464;29;20060;-46
2022/06/04 11:52:31;;;;;;;9.48;3.50;;;19.00;99.90;;;;;;4875965;29;20466;-47
2022/06/04 11:55:36;;;;;;;5.75;3.55;;;19.90;99.90;;;;;;4843813;29;20061;-47
2022/06/04 11:58:14;;;;;;;7.90;3.45;;;19.10;99.90;;;;;;4874551;29;20096;-50
2022/06/04 12:00:44;;;;;;;7.57;3.65;;;18.80;99.90;;;;;;4878563;29;20088;-49
2022/06/04 12:03:32;;;;;;;7.13;3.00;;;20.90;99.90;;;;;;4911712;29;20091;-49
2022/06/04 12:06:23;;;;;;;7.25;3.00;;;18.80;99.90;;;;;;4896205;29;20047;-50
2022/06/04 12:09:17;;;;;;;7.57;3.60;;;19.10;99.90;;;;;;4895424;29;20066;-50
2022/06/04 12:11:48;;;;;;;6.88;3.50;;;18.80;99.90;;;;;;4860801;29;20048;-50
2022/06/04 12:14:31;;;;;;;9.33;3.47;;;18.60;99.90;;;;;;4876195;29;21084;-49
2022/06/04 12:17:16;;;;;;;7.28;3.80;;;18.80;99.90;;;;;;4860652;29;20055;-48
2022/06/04 12:25:44;;;;;;;10.25;4.70;;;18.70;99.90;;;;;;4893506;29;20413;-50
2022/06/04 12:28:39;;;;;;;8.85;4.43;;;18.80;99.90;;;;;;4914623;28;20055;-49
2022/06/04 12:31:06;;;;;;;9.75;4.47;;;18.80;99.90;;;;;;4942656;28;20492;-51
2022/06/04 12:33:33;;;;;;;12.60;5.35;;;18.60;99.90;;;;;;4990326;28;20042;-48
2022/06/04 12:36:04;;;;;;;9.80;4.43;;;19.00;99.90;;;;;;4990171;28;20068;-50
2022/06/04 12:38:36;;;;;;;10.88;4.22;;;18.60;99.90;;;;;;5007291;28;20081;-49
2022/06/04 12:41:07;;;;;;;9.35;4.80;;;18.90;99.90;;;;;;5007230;28;20050;-46
2022/06/04 12:43:37;;;;;;;8.32;4.38;;;18.90;99.90;;;;;;4975453;28;20046;-51
2022/06/04 12:46:12;;;;;;;9.55;4.30;;;19.00;99.90;;;;;;4973569;28;20049;-48
2022/06/04 12:49:03;;;;;;;11.43;4.55;;;18.80;99.90;;;;;;5007316;28;20700;-46
2022/06/04 12:51:34;;;;;;;10.68;4.63;;;18.60;99.90;;;;;;5034304;28;20043;-53
2022/06/04 12:54:37;;;;;;;11.05;4.22;;;18.80;99.90;;;;;;5049274;28;20044;-48
2022/06/04 12:57:16;;;;;;;10.23;3.88;;;18.70;99.90;;;;;;5051878;28;20512;-48
2022/06/04 12:59:46;;;;;;;10.93;6.05;;;18.40;99.90;;;;;;5050591;28;20841;-47
2022/06/04 13:02:31;;;;;;;8.15;3.97;;;18.70;99.90;;;;;;5050913;28;21086;-51
2022/06/04 13:05:22;;;;;;;7.38;4.03;;;20.20;99.90;;;;;;5051072;28;20505;-50
2022/06/04 13:08:01;;;;;;;10.90;4.53;;;18.70;99.90;;;;;;5031736;28;20194;-52
2022/06/04 13:10:34;;;;;;;12.27;4.15;;;19.20;99.90;;;;;;5065020;28;20048;-48
2022/06/04 13:13:22;;;;;;;11.48;4.82;;;19.10;99.90;;;;;;5048015;28;20067;-46
2022/06/04 13:15:52;;;;;;;10.60;4.15;;;18.40;99.90;;;;;;5031950;28;20446;-47
2022/06/04 13:18:33;;;;;;;9.73;4.20;;;18.40;99.90;;;;;;5049651;28;20041;-48
2022/06/04 13:21:01;;;;;;;11.15;3.90;;;18.10;99.90;;;;;;5032085;28;20059;-46
2022/06/04 13:23:40;;;;;;;10.15;3.83;;;18.00;99.90;;;;;;5033876;28;20044;-50
2022/06/04 13:26:30;;;;;;;13.07;4.55;;;18.20;99.90;;;;;;5049771;28;20448;-47
2022/06/04 13:29:02;;;;;;;9.40;3.92;;;18.10;99.90;;;;;;5034935;28;20040;-52
2022/06/04 13:31:29;;;;;;;;;;;18.40;99.90;;;;;;5034576;28;20048;-52
2022/06/04 13:34:09;;;;;;;8.95;4.20;;;18.30;99.90;;;;;;5033825;28;19924;-49
2022/06/04 13:36:37;;;;;;;11.60;4.65;;;18.40;99.90;;;;;;5032373;28;20129;-51